createdAt,value
2022-10-28T00:00:52.942Z,4.97
2022-10-28T00:01:55.877Z,4.40
2022-10-28T00:03:02.213Z,4.60
2022-10-28T00:04:05.377Z,4.62
2022-10-28T00:05:08.584Z,4.12
2022-10-28T00:06:20.582Z,4.00
2022-10-28T00:07:23.343Z,4.57
2022-10-28T00:08:26.414Z,3.80
2022-10-28T00:09:29.377Z,4.85
2022-10-28T00:10:32.385Z,4.90
2022-10-28T00:11:36.022Z,4.30
2022-10-28T00:12:39.049Z,3.70
2022-10-28T00:13:43.498Z,4.45
2022-10-28T00:14:46.257Z,4.20
2022-10-28T00:15:48.985Z,4.53
2022-10-28T00:16:51.853Z,4.43
2022-10-28T00:17:54.861Z,5.25
2022-10-28T00:19:02.580Z,4.47
2022-10-28T00:20:06.014Z,4.20
2022-10-28T00:21:15.052Z,5.00
2022-10-28T00:22:17.812Z,3.92
2022-10-28T00:23:20.698Z,4.93
2022-10-28T00:24:23.584Z,4.30
2022-10-28T00:25:26.493Z,5.25
2022-10-28T00:26:31.378Z,5.15
2022-10-28T00:27:34.647Z,4.10
2022-10-28T00:28:42.112Z,4.40
2022-10-28T00:29:44.837Z,3.87
2022-10-28T00:30:47.592Z,5.78
2022-10-28T00:31:51.096Z,3.95
2022-10-28T00:32:54.036Z,4.50
2022-10-28T00:33:59.481Z,5.18
2022-10-28T00:35:02.369Z,4.03
2022-10-28T00:36:16.494Z,4.70
2022-10-28T00:37:19.297Z,3.75
2022-10-28T00:38:22.008Z,4.37
2022-10-28T00:39:26.230Z,4.82
2022-10-28T00:40:34.716Z,3.83
2022-10-28T00:41:39.794Z,4.45
2022-10-28T00:42:42.664Z,4.20
2022-10-28T00:43:51.279Z,4.28
2022-10-28T00:45:02.405Z,4.32
2022-10-28T00:46:12.471Z,4.20
2022-10-28T00:47:26.184Z,4.32
2022-10-28T00:48:29.396Z,3.75
2022-10-28T00:49:34.860Z,4.80
2022-10-28T00:50:55.235Z,4.90
2022-10-28T00:52:09.465Z,3.50
2022-10-28T00:53:29.417Z,4.18
2022-10-28T00:54:33.085Z,2.90
2022-10-28T00:55:36.394Z,3.62
2022-10-28T00:56:43.667Z,3.70
2022-10-28T00:57:51.002Z,3.87
2022-10-28T00:58:57.144Z,3.85
2022-10-28T01:00:02.032Z,3.12
2022-10-28T01:01:05.353Z,4.53
2022-10-28T01:02:08.718Z,3.33
2022-10-28T01:03:11.509Z,3.55
2022-10-28T01:04:14.703Z,4.07
2022-10-28T01:05:22.124Z,3.40
2022-10-28T01:06:26.465Z,3.35
2022-10-28T01:07:30.249Z,4.30
2022-10-28T01:08:33.430Z,4.12
2022-10-28T01:09:36.248Z,3.97
2022-10-28T01:11:03.524Z,3.75
2022-10-28T01:12:47.568Z,3.30
2022-10-28T01:14:16.149Z,3.30
2022-10-28T01:15:59.003Z,2.97
2022-10-28T01:17:31.275Z,4.20
2022-10-28T01:18:34.045Z,2.95
2022-10-28T01:19:42.683Z,2.85
2022-10-28T01:21:26.659Z,3.12
2022-10-28T01:23:01.719Z,2.92
2022-10-28T01:24:11.626Z,2.37
2022-10-28T01:25:41.834Z,3.20
2022-10-28T01:26:53.797Z,3.05
2022-10-28T01:28:44.073Z,3.72
2022-10-28T01:29:58.712Z,2.30
2022-10-28T01:31:19.978Z,2.55
2022-10-28T01:32:39.651Z,3.17
2022-10-28T01:34:08.652Z,3.12
2022-10-28T01:35:17.250Z,3.70
2022-10-28T01:36:25.770Z,3.15
2022-10-28T01:37:41.312Z,3.62
2022-10-28T01:38:59.956Z,2.95
2022-10-28T01:40:11.509Z,2.78
2022-10-28T01:41:23.663Z,3.20
2022-10-28T01:42:39.107Z,2.87
2022-10-28T01:44:09.633Z,3.37
2022-10-28T01:45:31.201Z,4.05
2022-10-28T01:46:42.585Z,3.47
2022-10-28T01:47:58.135Z,3.60
2022-10-28T01:49:10.479Z,3.87
2022-10-28T01:50:25.135Z,2.90
2022-10-28T01:51:36.571Z,3.72
2022-10-28T01:52:41.623Z,2.40
2022-10-28T01:53:47.632Z,4.40
2022-10-28T01:54:55.548Z,4.05
2022-10-28T01:56:03.060Z,3.47
2022-10-28T01:57:10.031Z,3.80
2022-10-28T01:58:17.898Z,4.30
2022-10-28T01:59:25.190Z,3.72
2022-10-28T02:00:28.664Z,3.22
2022-10-28T02:01:34.338Z,4.60
2022-10-28T02:02:39.412Z,3.28
2022-10-28T02:03:42.547Z,3.00
2022-10-28T02:04:45.331Z,4.80
2022-10-28T02:05:55.437Z,4.05
2022-10-28T02:07:00.895Z,3.95
2022-10-28T02:08:18.576Z,4.65
2022-10-28T02:09:51.855Z,3.62
2022-10-28T02:11:22.215Z,3.83
2022-10-28T02:12:37.543Z,3.37
2022-10-28T02:13:52.023Z,3.35
2022-10-28T02:15:02.947Z,3.42
2022-10-28T02:16:29.903Z,3.72
2022-10-28T02:17:57.306Z,3.50
2022-10-28T02:19:18.748Z,2.92
2022-10-28T02:20:36.305Z,3.55
2022-10-28T02:21:50.695Z,3.05
2022-10-28T02:23:01.332Z,4.62
2022-10-28T02:24:42.182Z,3.08
2022-10-28T02:25:49.657Z,2.72
2022-10-28T02:27:01.169Z,3.62
2022-10-28T02:29:26.152Z,3.12
2022-10-28T02:30:47.504Z,3.70
2022-10-28T02:31:56.214Z,3.17
2022-10-28T02:33:05.340Z,3.03
2022-10-28T02:34:13.691Z,3.08
2022-10-28T02:35:33.421Z,3.15
2022-10-28T02:36:40.616Z,3.28
2022-10-28T02:37:47.018Z,3.10
2022-10-28T02:38:53.814Z,3.42
2022-10-28T02:40:01.076Z,2.62
2022-10-28T02:41:11.307Z,3.08
2022-10-28T02:42:25.860Z,2.83
2022-10-28T02:43:32.940Z,2.95
2022-10-28T02:44:41.257Z,2.95
2022-10-28T02:45:49.856Z,2.70
2022-10-28T02:46:57.022Z,2.72
2022-10-28T02:48:07.337Z,3.35
2022-10-28T02:49:14.142Z,2.42
2022-10-28T02:50:21.303Z,3.22
2022-10-28T02:51:30.917Z,3.87
2022-10-28T02:52:35.294Z,3.90
2022-10-28T02:54:15.414Z,3.58
2022-10-28T02:55:23.020Z,3.30
2022-10-28T02:56:30.714Z,2.53
2022-10-28T02:57:37.948Z,4.03
2022-10-28T02:58:41.294Z,2.60
2022-10-28T02:59:51.242Z,2.67
2022-10-28T03:00:54.020Z,3.17
2022-10-28T03:01:57.311Z,4.22
2022-10-28T03:03:00.369Z,3.20
2022-10-28T03:04:03.593Z,2.83
2022-10-28T03:05:07.093Z,2.92
2022-10-28T03:06:09.909Z,3.25
2022-10-28T03:07:12.718Z,3.10
2022-10-28T03:08:15.512Z,3.05
2022-10-28T03:09:18.366Z,3.10
2022-10-28T03:10:21.677Z,4.15
2022-10-28T03:11:24.573Z,3.37
2022-10-28T03:12:27.365Z,2.80
2022-10-28T03:13:30.505Z,3.12
2022-10-28T03:14:33.303Z,4.03
2022-10-28T03:15:36.264Z,4.18
2022-10-28T03:16:39.430Z,3.70
2022-10-28T03:17:42.255Z,2.97
2022-10-28T03:18:45.059Z,3.95
2022-10-28T03:19:47.928Z,3.75
2022-10-28T03:20:51.241Z,4.00
2022-10-28T03:21:56.271Z,3.40
2022-10-28T03:22:59.117Z,2.90
2022-10-28T03:24:01.927Z,3.42
2022-10-28T03:25:05.468Z,2.85
2022-10-28T03:26:08.280Z,3.70
2022-10-28T03:27:11.163Z,3.75
2022-10-28T03:28:13.982Z,3.22
2022-10-28T03:29:16.748Z,3.28
2022-10-28T03:30:19.603Z,2.97
2022-10-28T03:31:22.391Z,2.70
2022-10-28T03:32:25.112Z,4.43
2022-10-28T03:33:27.999Z,2.87
2022-10-28T03:34:30.758Z,3.28
2022-10-28T03:35:33.680Z,3.10
2022-10-28T03:36:36.900Z,3.55
2022-10-28T03:37:43.924Z,3.78
2022-10-28T03:38:46.747Z,3.65
2022-10-28T03:39:49.600Z,3.03
2022-10-28T03:40:52.427Z,3.22
2022-10-28T03:41:55.399Z,3.20
2022-10-28T03:42:58.228Z,3.47
2022-10-28T03:44:01.124Z,4.00
2022-10-28T03:45:04.181Z,3.70
2022-10-28T03:46:07.074Z,3.67
2022-10-28T03:47:10.693Z,3.03
2022-10-28T03:48:13.616Z,4.45
2022-10-28T03:49:16.396Z,3.28
2022-10-28T03:50:19.217Z,2.97
2022-10-28T03:51:21.935Z,3.90
2022-10-28T03:52:24.697Z,3.80
2022-10-28T03:53:27.812Z,3.67
2022-10-28T03:54:34.058Z,3.45
2022-10-28T03:55:36.856Z,3.75
2022-10-28T03:56:40.831Z,3.58
2022-10-28T03:57:43.700Z,3.95
2022-10-28T03:58:50.049Z,3.45
2022-10-28T03:59:53.011Z,3.87
2022-10-28T04:00:57.188Z,2.95
2022-10-28T04:02:00.119Z,3.53
2022-10-28T04:03:02.985Z,3.62
2022-10-28T04:04:06.158Z,3.87
2022-10-28T04:05:09.151Z,3.78
2022-10-28T04:06:12.018Z,3.45
2022-10-28T04:07:15.072Z,4.22
2022-10-28T04:08:19.260Z,3.78
2022-10-28T04:09:22.145Z,5.15
2022-10-28T04:10:25.065Z,3.58
2022-10-28T04:11:27.988Z,3.00
2022-10-28T04:12:30.806Z,3.58
2022-10-28T04:13:33.832Z,3.30
2022-10-28T04:14:36.656Z,4.32
2022-10-28T04:15:39.630Z,3.65
2022-10-28T04:16:42.525Z,3.72
2022-10-28T04:17:45.553Z,4.10
2022-10-28T04:18:48.456Z,4.10
2022-10-28T04:19:51.218Z,3.60
2022-10-28T04:20:53.995Z,3.47
2022-10-28T04:21:56.785Z,4.28
2022-10-28T04:22:59.906Z,3.30
2022-10-28T04:24:03.012Z,3.42
2022-10-28T04:25:05.953Z,3.70
2022-10-28T04:26:09.434Z,4.50
2022-10-28T04:27:12.129Z,3.72
2022-10-28T04:28:15.173Z,3.50
2022-10-28T04:29:18.327Z,3.37
2022-10-28T04:30:21.848Z,3.67
2022-10-28T04:31:24.544Z,4.25
2022-10-28T04:32:27.517Z,4.10
2022-10-28T04:33:30.303Z,3.83
2022-10-28T04:34:33.282Z,3.70
2022-10-28T04:35:39.503Z,3.80
2022-10-28T04:36:42.600Z,4.32
2022-10-28T04:37:45.511Z,3.53
2022-10-28T04:38:48.355Z,3.60
2022-10-28T04:39:51.119Z,3.50
2022-10-28T04:40:53.934Z,4.20
2022-10-28T04:41:56.709Z,3.53
2022-10-28T04:42:59.573Z,4.03
2022-10-28T04:44:02.338Z,3.72
2022-10-28T04:45:05.574Z,4.93
2022-10-28T04:46:08.461Z,4.37
2022-10-28T04:47:11.479Z,4.43
2022-10-28T04:48:14.365Z,4.37
2022-10-28T04:49:17.202Z,3.83
2022-10-28T04:50:19.932Z,3.67
2022-10-28T04:51:22.588Z,3.70
2022-10-28T04:52:25.410Z,3.10
2022-10-28T04:53:28.222Z,3.95
2022-10-28T04:54:31.056Z,3.80
2022-10-28T04:55:33.884Z,4.85
2022-10-28T04:56:36.658Z,3.70
2022-10-28T04:57:39.458Z,3.65
2022-10-28T04:58:42.395Z,3.60
2022-10-28T04:59:46.209Z,4.32
2022-10-28T05:00:48.977Z,4.45
2022-10-28T05:01:51.806Z,3.65
2022-10-28T05:03:02.838Z,3.92
2022-10-28T05:04:05.697Z,3.50
2022-10-28T05:05:09.076Z,3.35
2022-10-28T05:06:11.865Z,3.53
2022-10-28T05:07:17.585Z,4.70
2022-10-28T05:08:22.678Z,3.28
2022-10-28T05:09:25.478Z,3.97
2022-10-28T05:10:28.375Z,3.83
2022-10-28T05:11:31.309Z,4.97
2022-10-28T05:12:34.257Z,4.50
2022-10-28T05:13:39.874Z,4.20
2022-10-28T05:14:42.575Z,3.65
2022-10-28T05:15:45.548Z,4.70
2022-10-28T05:16:48.827Z,4.22
2022-10-28T05:17:51.942Z,4.35
2022-10-28T05:18:59.059Z,4.47
2022-10-28T05:20:01.753Z,3.85
2022-10-28T05:21:04.768Z,4.10
2022-10-28T05:22:07.747Z,5.18
2022-10-28T05:23:10.967Z,4.22
2022-10-28T05:24:13.812Z,4.10
2022-10-28T05:25:17.787Z,3.87
2022-10-28T05:26:20.547Z,4.25
2022-10-28T05:27:23.346Z,4.25
2022-10-28T05:28:26.129Z,4.20
2022-10-28T05:29:33.144Z,4.72
2022-10-28T05:30:38.367Z,4.85
2022-10-28T05:31:41.328Z,4.15
2022-10-28T05:32:44.194Z,4.28
2022-10-28T05:33:47.038Z,4.60
2022-10-28T05:34:49.830Z,4.87
2022-10-28T05:35:52.800Z,4.95
2022-10-28T05:36:55.608Z,4.47
2022-10-28T05:37:58.803Z,4.35
2022-10-28T05:39:01.616Z,4.87
2022-10-28T05:40:04.789Z,4.43
2022-10-28T05:41:07.580Z,3.95
2022-10-28T05:42:10.634Z,4.40
2022-10-28T05:43:13.619Z,3.92
2022-10-28T05:44:16.447Z,4.50
2022-10-28T05:45:19.297Z,5.50
2022-10-28T05:46:22.695Z,3.85
2022-10-28T05:47:25.435Z,4.03
2022-10-28T05:48:31.872Z,3.72
2022-10-28T05:49:34.612Z,3.42
2022-10-28T05:50:37.380Z,4.10
2022-10-28T05:51:40.209Z,4.32
2022-10-28T05:52:57.158Z,4.60
2022-10-28T05:53:59.869Z,3.42
2022-10-28T05:55:02.620Z,4.87
2022-10-28T05:56:05.499Z,4.18
2022-10-28T05:57:08.275Z,3.83
2022-10-28T05:58:11.068Z,4.12
2022-10-28T05:59:13.837Z,4.12
2022-10-28T06:00:21.806Z,5.65
2022-10-28T06:01:24.596Z,7.43
2022-10-28T06:02:27.576Z,6.87
2022-10-28T06:03:31.366Z,6.97
2022-10-28T06:04:34.364Z,6.97
2022-10-28T06:05:38.556Z,4.85
2022-10-28T06:06:41.676Z,4.37
2022-10-28T06:07:45.210Z,4.07
2022-10-28T06:08:48.219Z,4.20
2022-10-28T06:09:51.228Z,4.57
2022-10-28T06:10:53.969Z,5.60
2022-10-28T06:11:56.722Z,4.78
2022-10-28T06:12:59.660Z,3.83
2022-10-28T06:14:02.652Z,5.22
2022-10-28T06:15:05.953Z,5.68
2022-10-28T06:16:08.750Z,5.15
2022-10-28T06:17:11.688Z,6.87
2022-10-28T06:18:16.757Z,6.07
2022-10-28T06:19:21.705Z,5.78
2022-10-28T06:20:24.674Z,5.65
2022-10-28T06:21:27.435Z,6.12
2022-10-28T06:22:30.198Z,5.00
2022-10-28T06:23:32.952Z,4.82
2022-10-28T06:24:35.795Z,5.45
2022-10-28T06:25:38.661Z,4.55
2022-10-28T06:26:42.214Z,5.90
2022-10-28T06:27:50.931Z,6.00
2022-10-28T06:28:53.868Z,4.82
2022-10-28T06:29:56.678Z,5.35
2022-10-28T06:31:04.346Z,5.37
2022-10-28T06:32:10.383Z,5.57
2022-10-28T06:33:13.118Z,4.60
2022-10-28T06:34:15.940Z,6.72
2022-10-28T06:35:19.069Z,5.45
2022-10-28T06:36:21.855Z,5.45
2022-10-28T06:37:24.723Z,5.87
2022-10-28T06:38:28.035Z,5.68
2022-10-28T06:39:30.847Z,4.65
2022-10-28T06:40:33.620Z,6.28
2022-10-28T06:41:36.443Z,4.82
2022-10-28T06:42:39.231Z,4.53
2022-10-28T06:43:42.149Z,5.15
2022-10-28T06:44:45.319Z,5.03
2022-10-28T06:45:52.481Z,4.22
2022-10-28T06:46:56.875Z,5.07
2022-10-28T06:48:02.824Z,4.65
2022-10-28T06:49:06.017Z,5.15
2022-10-28T06:50:09.108Z,4.12
2022-10-28T06:51:11.861Z,5.90
2022-10-28T06:52:14.624Z,6.05
2022-10-28T06:53:21.245Z,5.82
2022-10-28T06:54:24.043Z,5.78
2022-10-28T06:55:27.608Z,4.85
2022-10-28T06:56:30.493Z,6.03
2022-10-28T06:57:33.383Z,6.50
2022-10-28T06:58:36.522Z,5.68
2022-10-28T06:59:39.406Z,4.65
2022-10-28T07:00:42.162Z,5.03
2022-10-28T07:01:45.224Z,4.80
2022-10-28T07:02:53.171Z,6.05
2022-10-28T07:03:56.032Z,5.22
2022-10-28T07:04:58.827Z,5.50
2022-10-28T07:06:01.883Z,5.03
2022-10-28T07:07:04.944Z,5.22
2022-10-28T07:08:07.731Z,4.47
2022-10-28T07:09:14.539Z,6.65
2022-10-28T07:10:17.604Z,5.97
2022-10-28T07:11:20.477Z,6.10
2022-10-28T07:12:23.246Z,5.53
2022-10-28T07:13:27.027Z,5.30
2022-10-28T07:14:29.879Z,5.60
2022-10-28T07:15:32.813Z,4.80
2022-10-28T07:16:35.641Z,4.65
2022-10-28T07:17:39.268Z,5.55
2022-10-28T07:18:42.109Z,5.05
2022-10-28T07:19:45.073Z,5.20
2022-10-28T07:20:48.143Z,5.05
2022-10-28T07:21:51.292Z,5.15
2022-10-28T07:23:01.640Z,5.90
2022-10-28T07:24:04.541Z,5.72
2022-10-28T07:25:07.838Z,4.03
2022-10-28T07:26:10.847Z,6.10
2022-10-28T07:27:13.919Z,5.53
2022-10-28T07:28:20.714Z,5.32
2022-10-28T07:29:23.483Z,4.55
2022-10-28T07:30:27.613Z,4.85
2022-10-28T07:31:31.982Z,5.57
2022-10-28T07:32:36.633Z,5.15
2022-10-28T07:33:39.436Z,5.72
2022-10-28T07:34:42.191Z,5.72
2022-10-28T07:35:45.059Z,4.93
2022-10-28T07:36:52.881Z,5.00
2022-10-28T07:37:55.691Z,4.93
2022-10-28T07:38:58.649Z,3.55
2022-10-28T07:40:01.661Z,3.45
2022-10-28T07:41:08.604Z,2.83
2022-10-28T07:42:11.567Z,3.17
2022-10-28T07:43:14.385Z,4.75
2022-10-28T07:44:17.414Z,3.80
2022-10-28T07:45:20.916Z,4.50
2022-10-28T07:46:23.786Z,4.40
2022-10-28T07:47:26.828Z,5.43
2022-10-28T07:48:30.013Z,4.65
2022-10-28T07:49:33.070Z,4.78
2022-10-28T07:50:35.992Z,5.25
2022-10-28T07:51:38.822Z,4.85
2022-10-28T07:52:41.616Z,4.35
2022-10-28T07:53:44.521Z,4.70
2022-10-28T07:54:47.282Z,6.22
2022-10-28T07:56:01.857Z,4.82
2022-10-28T07:57:05.003Z,4.85
2022-10-28T07:58:07.791Z,4.80
2022-10-28T07:59:10.665Z,5.05
2022-10-28T08:00:13.613Z,5.60
2022-10-28T08:01:20.139Z,3.90
2022-10-28T08:02:25.253Z,4.05
2022-10-28T08:03:37.982Z,4.62
2022-10-28T08:04:40.836Z,3.42
2022-10-28T08:05:43.992Z,3.75
2022-10-28T08:06:46.903Z,4.30
2022-10-28T08:07:49.920Z,4.03
2022-10-28T08:08:57.272Z,2.75
2022-10-28T08:10:00.085Z,3.35
2022-10-28T08:11:16.841Z,3.17
2022-10-28T08:12:19.621Z,3.05
2022-10-28T08:13:22.699Z,2.70
2022-10-28T08:14:25.693Z,2.87
2022-10-28T08:15:30.171Z,3.17
2022-10-28T08:16:32.940Z,3.62
2022-10-28T08:17:35.934Z,2.47
2022-10-28T08:18:39.545Z,2.72
2022-10-28T08:19:42.439Z,2.60
2022-10-28T08:20:45.361Z,2.60
2022-10-28T08:21:48.155Z,2.95
2022-10-28T08:22:51.193Z,3.15
2022-10-28T08:23:55.213Z,3.65
2022-10-28T08:24:58.090Z,2.90
2022-10-28T08:26:00.948Z,3.58
2022-10-28T08:27:03.831Z,3.15
2022-10-28T08:28:06.750Z,3.00
2022-10-28T08:29:12.536Z,3.85
2022-10-28T08:30:15.556Z,3.53
2022-10-28T08:31:18.372Z,3.22
2022-10-28T08:32:21.175Z,2.40
2022-10-28T08:33:23.931Z,2.83
2022-10-28T08:34:30.127Z,3.37
2022-10-28T08:35:33.184Z,3.33
2022-10-28T08:36:36.356Z,2.87
2022-10-28T08:37:39.312Z,2.90
2022-10-28T08:38:46.186Z,2.78
2022-10-28T08:39:49.133Z,2.80
2022-10-28T08:41:19.449Z,3.67
2022-10-28T08:42:39.299Z,3.53
2022-10-28T08:44:00.616Z,2.40
2022-10-28T08:45:16.018Z,3.10
2022-10-28T08:46:40.552Z,3.50
2022-10-28T08:47:55.869Z,2.75
2022-10-28T08:49:03.585Z,3.95
2022-10-28T08:50:14.683Z,3.70
2022-10-28T08:51:30.965Z,4.53
2022-10-28T08:53:11.940Z,3.62
2022-10-28T08:54:24.722Z,3.22
2022-10-28T08:55:39.431Z,3.70
2022-10-28T08:56:46.369Z,3.22
2022-10-28T08:57:58.028Z,3.12
2022-10-28T08:59:03.174Z,3.95
2022-10-28T09:00:08.300Z,3.15
2022-10-28T09:01:22.801Z,4.15
2022-10-28T09:02:33.354Z,3.75
2022-10-28T09:03:42.633Z,3.58
2022-10-28T09:04:46.943Z,3.67
2022-10-28T09:06:01.141Z,3.33
2022-10-28T09:07:05.683Z,3.20
2022-10-28T09:08:24.332Z,4.93
2022-10-28T09:09:27.140Z,3.17
2022-10-28T09:11:09.038Z,2.95
2022-10-28T09:12:43.496Z,3.25
2022-10-28T09:14:07.511Z,2.80
2022-10-28T09:15:34.178Z,3.00
2022-10-28T09:16:36.814Z,2.95
2022-10-28T09:17:55.759Z,4.40
2022-10-28T09:19:21.313Z,2.75
2022-10-28T09:20:55.950Z,3.05
2022-10-28T09:22:07.789Z,2.78
2022-10-28T09:23:31.663Z,3.60
2022-10-28T09:24:50.876Z,3.00
2022-10-28T09:26:22.349Z,3.22
2022-10-28T09:27:39.772Z,4.53
2022-10-28T09:30:20.231Z,2.83
2022-10-28T09:31:29.198Z,3.00
2022-10-28T09:32:55.571Z,3.15
2022-10-28T09:34:44.121Z,3.37
2022-10-28T09:35:48.711Z,3.30
2022-10-28T09:37:07.085Z,4.45
2022-10-28T09:38:34.558Z,3.20
2022-10-28T09:39:43.396Z,3.92
2022-10-28T09:40:53.060Z,3.10
2022-10-28T09:42:01.128Z,3.08
2022-10-28T09:43:34.181Z,3.65
2022-10-28T09:44:43.600Z,3.92
2022-10-28T09:45:48.854Z,4.40
2022-10-28T09:46:55.663Z,3.83
2022-10-28T09:48:13.935Z,4.18
2022-10-28T09:49:26.309Z,4.35
2022-10-28T09:50:32.153Z,3.03
2022-10-28T09:51:52.718Z,3.47
2022-10-28T09:53:10.500Z,2.30
2022-10-28T09:54:13.908Z,3.72
2022-10-28T09:55:22.239Z,3.62
2022-10-28T09:56:27.154Z,3.17
2022-10-28T09:57:33.059Z,3.62
2022-10-28T09:58:36.904Z,3.03
2022-10-28T09:59:43.315Z,4.25
2022-10-28T10:00:46.447Z,3.28
2022-10-28T10:01:49.411Z,3.85
2022-10-28T10:02:57.809Z,3.35
2022-10-28T10:04:01.639Z,4.18
2022-10-28T10:05:16.068Z,3.53
2022-10-28T10:06:29.254Z,3.65
2022-10-28T10:07:34.752Z,3.85
2022-10-28T10:08:39.614Z,4.07
2022-10-28T10:09:45.338Z,2.85
2022-10-28T10:10:56.263Z,3.53
2022-10-28T10:13:29.165Z,2.20
2022-10-28T10:14:37.576Z,3.35
2022-10-28T10:15:55.996Z,2.90
2022-10-28T10:17:17.883Z,3.10
2022-10-28T10:18:30.203Z,3.22
2022-10-28T10:19:58.246Z,3.30
2022-10-28T10:21:03.137Z,4.10
2022-10-28T10:22:06.119Z,3.05
2022-10-28T10:23:24.475Z,3.53
2022-10-28T10:24:35.485Z,3.30
2022-10-28T10:25:38.256Z,2.72
2022-10-28T10:26:41.214Z,2.95
2022-10-28T10:27:54.648Z,3.03
2022-10-28T10:29:00.326Z,3.20
2022-10-28T10:30:19.078Z,3.53
2022-10-28T10:31:25.695Z,3.90
2022-10-28T10:32:32.205Z,3.97
2022-10-28T10:33:40.736Z,3.50
2022-10-28T10:34:46.922Z,3.75
2022-10-28T10:36:12.052Z,3.00
2022-10-28T10:37:21.502Z,3.22
2022-10-28T10:38:24.708Z,3.37
2022-10-28T10:39:37.579Z,2.95
2022-10-28T10:40:49.916Z,3.55
2022-10-28T10:41:57.119Z,3.20
2022-10-28T10:43:18.218Z,3.53
2022-10-28T10:44:21.180Z,3.00
2022-10-28T10:45:26.896Z,3.37
2022-10-28T10:46:29.948Z,3.17
2022-10-28T10:47:33.015Z,3.25
2022-10-28T10:48:38.699Z,2.72
2022-10-28T10:49:43.356Z,2.80
2022-10-28T10:50:50.228Z,2.87
2022-10-28T10:52:13.980Z,2.45
2022-10-28T10:53:31.616Z,3.05
2022-10-28T10:54:37.904Z,3.20
2022-10-28T10:55:41.556Z,2.90
2022-10-28T10:56:44.527Z,3.62
2022-10-28T10:57:48.959Z,3.22
2022-10-28T10:58:58.373Z,3.80
2022-10-28T11:00:01.447Z,4.00
2022-10-28T11:01:09.774Z,3.28
2022-10-28T11:02:26.625Z,3.33
2022-10-28T11:03:37.068Z,2.78
2022-10-28T11:04:39.902Z,3.12
2022-10-28T11:06:18.361Z,3.80
2022-10-28T11:07:19.453Z,3.33
2022-10-28T11:08:35.772Z,3.15
2022-10-28T11:09:42.615Z,3.83
2022-10-28T11:11:03.525Z,2.95
2022-10-28T11:13:35.781Z,2.20
2022-10-28T11:14:38.581Z,3.92
2022-10-28T11:15:42.417Z,2.95
2022-10-28T11:16:50.925Z,3.40
2022-10-28T11:18:04.601Z,3.42
2022-10-28T11:19:30.967Z,2.95
2022-10-28T11:21:01.580Z,2.87
2022-10-28T11:22:22.399Z,2.97
2022-10-28T11:24:52.778Z,3.42
2022-10-28T11:26:02.296Z,4.25
2022-10-28T11:27:30.116Z,3.60
2022-10-28T11:29:07.799Z,3.65
2022-10-28T11:30:16.814Z,2.83
2022-10-28T11:31:28.691Z,3.03
2022-10-28T11:33:29.486Z,2.62
2022-10-28T11:35:50.748Z,2.65
2022-10-28T11:37:14.832Z,3.42
2022-10-28T11:38:33.159Z,3.35
2022-10-28T11:39:41.327Z,3.60
2022-10-28T11:41:02.036Z,2.87
2022-10-28T11:42:20.900Z,2.65
2022-10-28T11:43:49.696Z,2.92
2022-10-28T11:45:13.798Z,3.00
2022-10-28T11:46:44.797Z,4.10
2022-10-28T11:48:09.001Z,2.90
2022-10-28T11:49:46.060Z,3.35
2022-10-28T11:50:59.428Z,2.65
2022-10-28T11:52:23.999Z,2.83
2022-10-28T11:54:05.035Z,3.05
2022-10-28T11:55:30.936Z,2.67
2022-10-28T11:56:48.383Z,3.05
2022-10-28T11:58:16.023Z,2.10
2022-10-28T11:59:30.826Z,2.62
2022-10-28T12:00:45.868Z,2.83
2022-10-28T12:02:30.486Z,3.28
2022-10-28T12:04:27.753Z,3.30
2022-10-28T12:05:50.005Z,3.42
2022-10-28T12:07:07.481Z,3.10
2022-10-28T12:08:15.889Z,3.42
2022-10-28T12:09:36.949Z,3.33
2022-10-28T12:11:02.418Z,3.37
2022-10-28T12:12:36.307Z,2.90
2022-10-28T12:14:05.957Z,2.72
2022-10-28T12:15:37.224Z,2.58
2022-10-28T12:16:51.780Z,3.87
2022-10-28T12:18:06.247Z,3.28
2022-10-28T12:19:18.820Z,3.40
2022-10-28T12:20:31.686Z,3.62
2022-10-28T12:21:38.135Z,3.08
2022-10-28T12:22:49.817Z,2.58
2022-10-28T12:23:55.198Z,2.35
2022-10-28T12:25:04.154Z,2.78
2022-10-28T12:26:10.972Z,3.05
2022-10-28T12:27:28.736Z,4.05
2022-10-28T12:28:41.302Z,2.85
2022-10-28T12:29:49.288Z,3.17
2022-10-28T12:30:53.818Z,3.47
2022-10-28T12:32:02.486Z,3.87
2022-10-28T12:33:12.837Z,4.78
2022-10-28T12:34:27.675Z,4.10
2022-10-28T12:35:38.658Z,2.65
2022-10-28T12:36:55.796Z,2.70
2022-10-28T12:38:20.436Z,2.33
2022-10-28T12:39:31.843Z,3.28
2022-10-28T12:40:45.330Z,2.62
2022-10-28T12:42:03.374Z,2.62
2022-10-28T12:43:13.112Z,3.35
2022-10-28T12:44:23.915Z,3.17
2022-10-28T12:47:21.487Z,3.00
2022-10-28T12:48:59.027Z,3.20
2022-10-28T12:50:23.147Z,3.00
2022-10-28T12:51:41.507Z,2.83
2022-10-28T12:52:51.053Z,2.90
2022-10-28T12:54:01.734Z,2.72
2022-10-28T12:59:49.269Z,2.30
2022-10-28T13:00:57.973Z,2.95
2022-10-28T13:02:03.715Z,3.22
2022-10-28T13:03:12.315Z,2.87
2022-10-28T13:07:33.789Z,2.50
2022-10-28T13:08:58.145Z,2.85
2022-10-28T13:10:06.607Z,2.45
2022-10-28T13:11:21.497Z,2.87
2022-10-28T13:12:47.606Z,2.97
2022-10-28T13:14:01.561Z,2.35
2022-10-28T13:15:26.094Z,3.45
2022-10-28T13:17:07.574Z,2.08
2022-10-28T13:18:12.960Z,3.22
2022-10-28T13:20:01.064Z,2.40
2022-10-28T13:21:07.026Z,3.20
2022-10-28T13:22:34.652Z,3.28
2022-10-28T13:23:46.632Z,2.78
2022-10-28T13:25:12.434Z,3.65
2022-10-28T13:26:34.263Z,4.47
2022-10-28T13:27:37.701Z,4.03
2022-10-28T13:28:51.860Z,3.15
2022-10-28T13:29:58.436Z,3.37
2022-10-28T13:31:05.188Z,2.80
2022-10-28T13:32:38.712Z,3.00
2022-10-28T13:34:02.186Z,3.17
2022-10-28T13:35:26.878Z,2.65
2022-10-28T13:36:36.893Z,2.60
2022-10-28T13:37:41.267Z,3.70
2022-10-28T13:38:51.559Z,2.95
2022-10-28T13:39:54.374Z,2.78
2022-10-28T13:41:00.014Z,3.55
2022-10-28T13:42:23.913Z,3.40
2022-10-28T13:43:52.272Z,2.70
2022-10-28T13:44:57.672Z,3.12
2022-10-28T13:46:00.515Z,2.70
2022-10-28T13:47:24.015Z,4.22
2022-10-28T13:48:29.618Z,3.05
2022-10-28T13:49:37.892Z,3.85
2022-10-28T13:50:41.302Z,4.93
2022-10-28T13:51:47.495Z,5.00
2022-10-28T13:53:42.816Z,3.12
2022-10-28T13:54:45.561Z,2.97
2022-10-28T13:55:48.685Z,3.53
2022-10-28T13:56:55.264Z,3.40
2022-10-28T13:58:03.869Z,3.90
2022-10-28T13:59:20.913Z,3.22
2022-10-28T14:00:24.253Z,4.03
2022-10-28T14:02:08.038Z,4.10
2022-10-28T14:03:24.732Z,3.08
2022-10-28T14:04:37.726Z,3.22
2022-10-28T14:05:40.435Z,3.22
2022-10-28T14:06:43.304Z,3.55
2022-10-28T14:08:20.915Z,3.28
2022-10-28T14:09:29.281Z,3.72
2022-10-28T14:10:36.222Z,3.70
2022-10-28T14:11:39.049Z,3.78
2022-10-28T14:12:47.440Z,3.65
2022-10-28T14:13:56.960Z,3.20
2022-10-28T14:15:14.722Z,3.50
2022-10-28T14:16:24.199Z,2.70
2022-10-28T14:17:37.726Z,3.40
2022-10-28T14:18:44.215Z,3.10
2022-10-28T14:19:53.487Z,2.95
2022-10-28T14:21:01.251Z,3.45
2022-10-28T14:22:08.256Z,3.10
2022-10-28T14:23:29.349Z,4.55
2022-10-28T14:24:42.004Z,4.72
2022-10-28T14:25:44.833Z,3.67
2022-10-28T14:27:05.984Z,4.95
2022-10-28T14:28:30.164Z,3.55
2022-10-28T14:29:47.080Z,5.90
2022-10-28T14:31:08.457Z,4.32
2022-10-28T14:32:31.136Z,3.60
2022-10-28T14:33:42.752Z,2.67
2022-10-28T14:34:47.140Z,3.62
2022-10-28T14:35:57.576Z,2.97
2022-10-28T14:37:33.013Z,3.47
2022-10-28T14:38:53.841Z,3.55
2022-10-28T14:40:18.294Z,3.30
2022-10-28T14:41:21.106Z,2.97
2022-10-28T14:42:52.856Z,2.28
2022-10-28T14:44:05.266Z,3.10
2022-10-28T14:45:10.580Z,3.22
2022-10-28T14:46:34.909Z,2.83
2022-10-28T14:48:10.671Z,2.80
2022-10-28T14:49:25.663Z,2.75
2022-10-28T14:50:40.726Z,2.78
2022-10-28T14:51:44.766Z,2.80
2022-10-28T14:52:50.839Z,2.53
2022-10-28T14:53:59.790Z,2.72
2022-10-28T14:55:07.108Z,2.80
2022-10-28T14:56:18.242Z,3.40
2022-10-28T14:57:33.838Z,4.65
2022-10-28T14:58:39.646Z,2.60
2022-10-28T14:59:44.536Z,2.75
2022-10-28T15:01:00.718Z,3.10
2022-10-28T15:02:18.189Z,3.25
2022-10-28T15:03:21.089Z,3.33
2022-10-28T15:04:24.213Z,4.53
2022-10-28T15:05:30.806Z,4.25
2022-10-28T15:06:39.446Z,4.70
2022-10-28T15:07:42.744Z,4.47
2022-10-28T15:08:46.037Z,4.22
2022-10-28T15:09:53.887Z,3.92
2022-10-28T15:10:56.862Z,4.30
2022-10-28T15:12:03.106Z,4.87
2022-10-28T15:13:06.080Z,3.37
2022-10-28T15:14:38.121Z,3.37
2022-10-28T15:15:52.662Z,4.65
2022-10-28T15:16:55.959Z,3.30
2022-10-28T15:18:01.199Z,3.55
2022-10-28T15:19:06.735Z,3.08
2022-10-28T15:20:34.616Z,3.83
2022-10-28T15:21:37.442Z,4.20
2022-10-28T15:22:42.015Z,5.85
2022-10-28T15:23:47.464Z,4.20
2022-10-28T15:25:06.156Z,3.22
2022-10-28T15:26:14.085Z,3.60
2022-10-28T15:27:17.395Z,2.90
2022-10-28T15:28:20.372Z,3.35
2022-10-28T15:29:24.271Z,3.25
2022-10-28T15:30:27.392Z,4.07
2022-10-28T15:31:30.362Z,3.58
2022-10-28T15:32:35.724Z,4.37
2022-10-28T15:33:41.062Z,3.33
2022-10-28T15:34:44.262Z,4.05
2022-10-28T15:35:47.829Z,5.62
2022-10-28T15:36:55.223Z,3.97
2022-10-28T15:38:01.173Z,4.05
2022-10-28T15:39:18.059Z,3.47
2022-10-28T15:40:39.172Z,5.70